createdAt,value
2024-03-02T00:00:47.979Z,-3.11
2024-03-02T00:01:50.144Z,-3.12
2024-03-02T00:02:52.489Z,-3.11
2024-03-02T00:03:54.757Z,-3.14
2024-03-02T00:04:57.103Z,-3.14
2024-03-02T00:05:59.242Z,-3.13
2024-03-02T00:07:01.333Z,-3.15
2024-03-02T00:08:06.429Z,-3.18
2024-03-02T00:09:10.503Z,-3.17
2024-03-02T00:10:15.678Z,-3.20
2024-03-02T00:11:18.059Z,-3.22
2024-03-02T00:12:21.748Z,-3.25
2024-03-02T00:13:24.359Z,-3.25
2024-03-02T00:14:26.671Z,-3.26
2024-03-02T00:15:53.763Z,-3.26
2024-03-02T00:16:57.681Z,-3.28
2024-03-02T00:18:00.294Z,-3.30
2024-03-02T00:19:07.423Z,-3.30
2024-03-02T00:20:11.167Z,-3.31
2024-03-02T00:21:16.155Z,-3.30
2024-03-02T00:22:18.272Z,-3.33
2024-03-02T00:23:21.748Z,-3.32
2024-03-02T00:24:34.280Z,-3.31
2024-03-02T00:25:40.491Z,-3.31
2024-03-02T00:26:46.197Z,-3.31
2024-03-02T00:27:51.246Z,-3.30
2024-03-02T00:28:58.580Z,-3.28
2024-03-02T00:30:02.871Z,-3.28
2024-03-02T00:31:06.459Z,-3.28
2024-03-02T00:32:17.737Z,-3.28
2024-03-02T00:33:21.419Z,-3.29
2024-03-02T00:34:24.042Z,-3.28
2024-03-02T00:35:26.094Z,-3.26
2024-03-02T00:36:28.677Z,-3.25
2024-03-02T00:37:31.181Z,-3.24
2024-03-02T00:38:34.186Z,-3.24
2024-03-02T00:39:36.949Z,-3.25
2024-03-02T00:40:39.085Z,-3.26
2024-03-02T00:41:45.818Z,-3.25
2024-03-02T00:42:48.047Z,-3.25
2024-03-02T00:43:56.761Z,-3.26
2024-03-02T00:44:59.452Z,-3.27
2024-03-02T00:46:01.952Z,-3.28
2024-03-02T00:47:04.370Z,-3.27
2024-03-02T00:48:06.985Z,-3.28
2024-03-02T00:49:14.795Z,-3.29
2024-03-02T00:50:23.559Z,-3.29
2024-03-02T00:51:34.176Z,-3.30
2024-03-02T00:52:37.150Z,-3.31
2024-03-02T00:53:39.471Z,-3.32
2024-03-02T00:54:41.483Z,-3.34
2024-03-02T00:55:48.636Z,-3.36
2024-03-02T00:56:51.431Z,-3.35
2024-03-02T00:57:53.617Z,-3.37
2024-03-02T00:58:55.710Z,-3.38
2024-03-02T00:59:58.076Z,-3.40
2024-03-02T01:01:00.108Z,-3.41
2024-03-02T01:02:02.807Z,-3.43
2024-03-02T01:03:05.297Z,-3.44
2024-03-02T01:04:07.496Z,-3.46
2024-03-02T01:05:09.498Z,-3.46
2024-03-02T01:06:11.704Z,-3.48
2024-03-02T01:07:13.646Z,-3.48
2024-03-02T01:08:16.146Z,-3.48
2024-03-02T01:09:19.596Z,-3.48
2024-03-02T01:10:21.791Z,-3.49
2024-03-02T01:11:24.320Z,-3.48
2024-03-02T01:12:26.861Z,-3.49
2024-03-02T01:13:28.960Z,-3.51
2024-03-02T01:14:31.065Z,-3.51
2024-03-02T01:15:34.427Z,-3.51
2024-03-02T01:16:36.532Z,-3.53
2024-03-02T01:17:38.534Z,-3.54
2024-03-02T01:18:40.977Z,-3.55
2024-03-02T01:19:43.472Z,-3.56
2024-03-02T01:20:45.827Z,-3.56
2024-03-02T01:21:47.936Z,-3.56
2024-03-02T01:22:50.060Z,-3.58
2024-03-02T01:23:52.004Z,-3.58
2024-03-02T01:24:54.482Z,-3.59
2024-03-02T01:25:56.888Z,-3.60
2024-03-02T01:26:59.146Z,-3.58
2024-03-02T01:28:01.288Z,-3.58
2024-03-02T01:29:03.539Z,-3.57
2024-03-02T01:30:06.365Z,-3.59
2024-03-02T01:31:08.806Z,-3.58
2024-03-02T01:32:10.759Z,-3.58
2024-03-02T01:33:13.062Z,-3.59
2024-03-02T01:34:15.198Z,-3.59
2024-03-02T01:35:17.341Z,-3.63
2024-03-02T01:36:19.840Z,-3.62
2024-03-02T01:37:22.077Z,-3.62
2024-03-02T01:38:24.131Z,-3.63
2024-03-02T01:39:26.248Z,-3.64
2024-03-02T01:40:28.652Z,-3.64
2024-03-02T01:41:30.916Z,-3.66
2024-03-02T01:42:32.894Z,-3.68
2024-03-02T01:43:36.392Z,-3.66
2024-03-02T01:44:39.456Z,-3.67
2024-03-02T01:45:41.820Z,-3.65
2024-03-02T01:46:44.025Z,-3.66
2024-03-02T01:47:46.145Z,-3.66
2024-03-02T01:48:49.114Z,-3.63
2024-03-02T01:49:52.044Z,-3.65
2024-03-02T01:50:54.202Z,-3.64
2024-03-02T01:51:56.253Z,-3.63
2024-03-02T01:52:59.030Z,-3.62
2024-03-02T01:54:01.136Z,-3.61
2024-03-02T01:55:03.302Z,-3.60
2024-03-02T01:56:06.017Z,-3.60
2024-03-02T01:57:08.173Z,-3.58
2024-03-02T01:58:10.654Z,-3.58
2024-03-02T01:59:14.342Z,-3.55
2024-03-02T02:00:17.194Z,-3.56
2024-03-02T02:01:19.477Z,-3.53
2024-03-02T02:02:21.918Z,-3.51
2024-03-02T02:03:23.959Z,-3.49
2024-03-02T02:04:29.129Z,-3.49
2024-03-02T02:05:31.401Z,-3.49
2024-03-02T02:06:34.480Z,-3.49
2024-03-02T02:07:36.917Z,-3.45
2024-03-02T02:08:39.220Z,-3.45
2024-03-02T02:09:44.617Z,-3.43
2024-03-02T02:10:46.774Z,-3.42
2024-03-02T02:11:49.007Z,-3.41
2024-03-02T02:12:51.311Z,-3.42
2024-03-02T02:13:53.325Z,-3.40
2024-03-02T02:14:55.659Z,-3.39
2024-03-02T02:16:06.468Z,-3.40
2024-03-02T02:17:08.902Z,-3.42
2024-03-02T02:18:11.168Z,-3.43
2024-03-02T02:19:13.193Z,-3.42
2024-03-02T02:20:15.268Z,-3.41
2024-03-02T02:21:17.394Z,-3.43
2024-03-02T02:22:19.498Z,-3.42
2024-03-02T02:23:21.804Z,-3.41
2024-03-02T02:24:23.913Z,-3.40
2024-03-02T02:25:26.400Z,-3.37
2024-03-02T02:26:28.385Z,-3.37
2024-03-02T02:27:32.073Z,-3.36
2024-03-02T02:28:34.023Z,-3.35
2024-03-02T02:29:36.265Z,-3.34
2024-03-02T02:30:38.354Z,-3.32
2024-03-02T02:31:42.324Z,-3.32
2024-03-02T02:32:44.220Z,-3.31
2024-03-02T02:33:46.406Z,-3.30
2024-03-02T02:34:53.231Z,-3.27
2024-03-02T02:35:55.182Z,-3.27
2024-03-02T02:36:57.536Z,-3.27
2024-03-02T02:38:02.553Z,-3.26
2024-03-02T02:39:06.639Z,-3.24
2024-03-02T02:40:10.290Z,-3.22
2024-03-02T02:41:12.297Z,-3.20
2024-03-02T02:42:14.357Z,-3.20
2024-03-02T02:43:16.590Z,-3.19
2024-03-02T02:44:18.686Z,-3.18
2024-03-02T02:45:20.987Z,-3.17
2024-03-02T02:46:23.141Z,-3.16
2024-03-02T02:47:25.388Z,-3.17
2024-03-02T02:48:27.403Z,-3.15
2024-03-02T02:49:29.559Z,-3.17
2024-03-02T02:50:31.526Z,-3.14
2024-03-02T02:51:33.811Z,-3.14
2024-03-02T02:52:37.899Z,-3.13
2024-03-02T02:53:41.910Z,-3.13
2024-03-02T02:54:43.936Z,-3.12
2024-03-02T02:55:46.161Z,-3.12
2024-03-02T02:56:48.206Z,-3.13
2024-03-02T02:57:50.345Z,-3.13
2024-03-02T02:58:52.740Z,-3.11
2024-03-02T02:59:54.874Z,-3.11
2024-03-02T03:00:58.078Z,-3.13
2024-03-02T03:02:00.515Z,-3.14
2024-03-02T03:03:02.423Z,-3.14
2024-03-02T03:04:04.787Z,-3.15
2024-03-02T03:05:07.612Z,-3.16
2024-03-02T03:06:09.676Z,-3.17
2024-03-02T03:07:11.642Z,-3.18
2024-03-02T03:08:13.766Z,-3.17
2024-03-02T03:09:15.825Z,-3.19
2024-03-02T03:10:18.673Z,-3.19
2024-03-02T03:11:20.849Z,-3.21
2024-03-02T03:12:22.979Z,-3.18
2024-03-02T03:13:25.013Z,-3.19
2024-03-02T03:14:27.244Z,-3.19
2024-03-02T03:15:29.249Z,-3.19
2024-03-02T03:16:31.349Z,-3.19
2024-03-02T03:17:33.651Z,-3.18
2024-03-02T03:18:35.820Z,-3.21
2024-03-02T03:19:40.002Z,-3.22
2024-03-02T03:20:42.177Z,-3.22
2024-03-02T03:21:45.325Z,-3.24
2024-03-02T03:22:47.449Z,-3.23
2024-03-02T03:23:49.564Z,-3.24
2024-03-02T03:24:51.786Z,-3.23
2024-03-02T03:25:53.786Z,-3.24
2024-03-02T03:26:55.958Z,-3.24
2024-03-02T03:27:58.660Z,-3.25
2024-03-02T03:29:00.942Z,-3.24
2024-03-02T03:30:03.957Z,-3.26
2024-03-02T03:31:06.795Z,-3.25
2024-03-02T03:32:09.727Z,-3.25
2024-03-02T03:33:12.072Z,-3.25
2024-03-02T03:34:17.102Z,-3.25
2024-03-02T03:35:19.898Z,-3.27
2024-03-02T03:36:22.022Z,-3.28
2024-03-02T03:37:25.284Z,-3.28
2024-03-02T03:38:27.319Z,-3.29
2024-03-02T03:39:32.270Z,-3.29
2024-03-02T03:40:34.354Z,-3.31
2024-03-02T03:41:36.838Z,-3.31
2024-03-02T03:42:40.172Z,-3.32
2024-03-02T03:43:42.548Z,-3.32
2024-03-02T03:44:44.559Z,-3.32
2024-03-02T03:45:46.888Z,-3.32
2024-03-02T03:46:48.843Z,-3.32
2024-03-02T03:47:51.065Z,-3.33
2024-03-02T03:48:53.346Z,-3.33
2024-03-02T03:49:55.486Z,-3.34
2024-03-02T03:50:58.322Z,-3.35
2024-03-02T03:52:00.619Z,-3.34
2024-03-02T03:53:02.631Z,-3.35
2024-03-02T03:54:04.701Z,-3.34
2024-03-02T03:55:07.353Z,-3.35
2024-03-02T03:56:09.857Z,-3.38
2024-03-02T03:57:11.919Z,-3.36
2024-03-02T03:58:14.862Z,-3.37
2024-03-02T03:59:16.831Z,-3.36
2024-03-02T04:00:19.124Z,-3.34
2024-03-02T04:01:23.589Z,-3.33
2024-03-02T04:02:26.099Z,-3.33
2024-03-02T04:03:28.099Z,-3.32
2024-03-02T04:04:30.407Z,-3.29
2024-03-02T04:05:32.447Z,-3.28
2024-03-02T04:06:34.573Z,-3.26
2024-03-02T04:07:44.577Z,-3.25
2024-03-02T04:08:47.101Z,-3.23
2024-03-02T04:09:49.277Z,-3.22
2024-03-02T04:10:51.489Z,-3.19
2024-03-02T04:11:53.520Z,-3.17
2024-03-02T04:12:56.184Z,-3.15
2024-03-02T04:13:59.142Z,-3.11
2024-03-02T04:15:02.870Z,-3.10
2024-03-02T04:16:06.278Z,-3.04
2024-03-02T04:17:08.565Z,-3.01
2024-03-02T04:18:10.739Z,-2.97
2024-03-02T04:19:13.418Z,-2.92
2024-03-02T04:20:15.661Z,-2.89
2024-03-02T04:21:17.832Z,-2.87
2024-03-02T04:22:25.078Z,-2.83
2024-03-02T04:23:28.225Z,-2.79
2024-03-02T04:24:30.179Z,-2.77
2024-03-02T04:25:32.254Z,-2.74
2024-03-02T04:26:34.339Z,-2.70
2024-03-02T04:27:37.038Z,-2.66
2024-03-02T04:28:39.228Z,-2.63
2024-03-02T04:29:41.379Z,-2.61
2024-03-02T04:30:43.516Z,-2.56
2024-03-02T04:31:45.848Z,-2.52
2024-03-02T04:32:49.116Z,-2.48
2024-03-02T04:33:51.299Z,-2.43
2024-03-02T04:34:53.321Z,-2.40
2024-03-02T04:35:55.477Z,-2.35
2024-03-02T04:36:57.618Z,-2.30
2024-03-02T04:37:59.954Z,-2.25
2024-03-02T04:39:02.036Z,-2.23
2024-03-02T04:40:04.570Z,-2.19
2024-03-02T04:41:09.595Z,-2.13
2024-03-02T04:42:11.883Z,-2.11
2024-03-02T04:43:17.710Z,-2.08
2024-03-02T04:44:20.196Z,-2.04
2024-03-02T04:45:22.448Z,-2.00
2024-03-02T04:46:24.524Z,-1.96
2024-03-02T04:47:26.589Z,-1.91
2024-03-02T04:48:29.102Z,-1.86
2024-03-02T04:49:31.685Z,-1.82
2024-03-02T04:50:33.797Z,-1.77
2024-03-02T04:51:35.930Z,-1.73
2024-03-02T04:52:38.256Z,-1.70
2024-03-02T04:53:40.251Z,-1.67
2024-03-02T04:55:08.458Z,-1.64
2024-03-02T04:56:29.022Z,-1.62
2024-03-02T04:57:31.343Z,-1.58
2024-03-02T04:58:33.602Z,-1.56
2024-03-02T04:59:35.700Z,-1.56
2024-03-02T05:00:37.832Z,-1.53
2024-03-02T05:01:40.046Z,-1.52
2024-03-02T05:02:42.076Z,-1.50
2024-03-02T05:03:44.385Z,-1.51
2024-03-02T05:04:46.662Z,-1.49
2024-03-02T05:05:49.093Z,-1.47
2024-03-02T05:06:54.347Z,-1.48
2024-03-02T05:07:56.559Z,-1.49
2024-03-02T05:08:58.609Z,-1.50
2024-03-02T05:10:01.188Z,-1.49
2024-03-02T05:11:23.428Z,-1.52
2024-03-02T05:12:43.896Z,-1.52
2024-03-02T05:13:46.087Z,-1.49
2024-03-02T05:14:48.135Z,-1.46
2024-03-02T05:15:50.653Z,-1.43
2024-03-02T05:16:53.139Z,-1.38
2024-03-02T05:17:55.343Z,-1.33
2024-03-02T05:18:57.484Z,-1.28
2024-03-02T05:19:59.872Z,-1.23
2024-03-02T05:21:02.029Z,-1.19
2024-03-02T05:22:04.542Z,-1.14
2024-03-02T05:23:06.808Z,-1.09
2024-03-02T05:24:08.869Z,-1.07
2024-03-02T05:25:11.872Z,-1.05
2024-03-02T05:26:14.195Z,-1.00
2024-03-02T05:27:16.421Z,-0.96
2024-03-02T05:28:18.855Z,-0.91
2024-03-02T05:29:21.767Z,-0.90
2024-03-02T05:30:23.913Z,-0.87
2024-03-02T05:31:26.176Z,-0.84
2024-03-02T05:32:28.619Z,-0.80
2024-03-02T05:33:32.790Z,-0.74
2024-03-02T05:34:37.262Z,-0.71
2024-03-02T05:35:39.538Z,-0.68
2024-03-02T05:36:41.554Z,-0.59
2024-03-02T05:37:43.729Z,-0.54
2024-03-02T05:38:45.757Z,-0.50
2024-03-02T05:39:47.872Z,-0.43
2024-03-02T05:40:50.192Z,-0.37
2024-03-02T05:41:52.629Z,-0.32
2024-03-02T05:42:54.728Z,-0.26
2024-03-02T05:43:56.939Z,-0.23
2024-03-02T05:44:58.862Z,-0.23
2024-03-02T05:46:01.036Z,-0.18
2024-03-02T05:47:04.502Z,-0.18
2024-03-02T05:48:08.939Z,-0.17
2024-03-02T05:49:11.533Z,-0.15
2024-03-02T05:50:13.805Z,-0.12
2024-03-02T05:51:15.896Z,-0.09
2024-03-02T05:52:18.104Z,-0.09
2024-03-02T05:53:20.164Z,-0.05
2024-03-02T05:54:22.297Z,-0.01
2024-03-02T05:55:24.301Z,0.03
2024-03-02T05:56:26.431Z,0.07
2024-03-02T05:58:00.865Z,0.07
2024-03-02T05:59:15.216Z,0.12
2024-03-02T06:00:18.735Z,0.13
2024-03-02T06:01:21.729Z,0.17
2024-03-02T06:02:23.922Z,0.15
2024-03-02T06:03:26.196Z,0.17
2024-03-02T06:04:28.140Z,0.21
2024-03-02T06:05:30.414Z,0.17
2024-03-02T06:06:34.877Z,0.14
2024-03-02T06:07:37.309Z,0.17
2024-03-02T06:08:39.708Z,0.16
2024-03-02T06:09:42.532Z,0.12
2024-03-02T06:10:44.883Z,0.15
2024-03-02T06:11:47.242Z,0.14
2024-03-02T06:12:49.396Z,0.19
2024-03-02T06:13:51.598Z,0.24
2024-03-02T06:14:53.675Z,0.31
2024-03-02T06:15:55.971Z,0.36
2024-03-02T06:16:58.080Z,0.37
2024-03-02T06:18:00.333Z,0.40
2024-03-02T06:19:03.146Z,0.36
2024-03-02T06:20:06.099Z,0.38
2024-03-02T06:21:08.280Z,0.47
2024-03-02T06:22:10.946Z,0.52
2024-03-02T06:23:12.921Z,0.56
2024-03-02T06:24:15.223Z,0.60
2024-03-02T06:25:17.183Z,0.62
2024-03-02T06:26:23.799Z,0.68
2024-03-02T06:27:27.802Z,0.58
2024-03-02T06:28:30.199Z,0.63
2024-03-02T06:29:35.157Z,0.74
2024-03-02T06:30:37.444Z,0.80
2024-03-02T06:31:39.461Z,0.88
2024-03-02T06:32:41.725Z,0.94
2024-03-02T06:33:43.932Z,1.00
2024-03-02T06:34:46.059Z,1.07
2024-03-02T06:35:48.145Z,1.13
2024-03-02T06:36:50.487Z,1.18
2024-03-02T06:37:52.557Z,1.19
2024-03-02T06:38:54.924Z,1.14
2024-03-02T06:39:57.154Z,1.18
2024-03-02T06:40:59.403Z,1.21
2024-03-02T06:42:01.778Z,1.24
2024-03-02T06:43:04.131Z,1.23
2024-03-02T06:44:07.777Z,1.31
2024-03-02T06:45:09.892Z,1.34
2024-03-02T06:46:15.894Z,1.35
2024-03-02T06:47:18.091Z,1.40
2024-03-02T06:48:24.432Z,1.39
2024-03-02T06:49:27.200Z,1.37
2024-03-02T06:50:29.899Z,1.36
2024-03-02T06:51:32.067Z,1.34
2024-03-02T06:52:34.153Z,1.34
2024-03-02T06:53:36.408Z,1.35
2024-03-02T06:54:38.503Z,1.36
2024-03-02T06:55:40.839Z,1.36
2024-03-02T06:56:42.822Z,1.38
2024-03-02T06:57:44.952Z,1.45
2024-03-02T06:58:47.021Z,1.50
2024-03-02T06:59:51.552Z,1.57
2024-03-02T07:00:54.269Z,1.61
2024-03-02T07:01:56.864Z,1.66
2024-03-02T07:02:59.666Z,1.73
2024-03-02T07:04:02.042Z,1.83
2024-03-02T07:05:05.153Z,1.86
2024-03-02T07:06:07.390Z,1.93
2024-03-02T07:07:09.512Z,2.03
2024-03-02T07:08:11.786Z,2.18
2024-03-02T07:09:13.937Z,2.26
2024-03-02T07:10:16.061Z,2.35
2024-03-02T07:11:18.329Z,2.40
2024-03-02T07:12:20.536Z,2.47
2024-03-02T07:13:22.535Z,2.56
2024-03-02T07:14:44.757Z,2.61
2024-03-02T07:15:46.730Z,2.63
2024-03-02T07:16:48.916Z,2.60
2024-03-02T07:17:51.183Z,2.58
2024-03-02T07:18:53.619Z,2.63
2024-03-02T07:19:55.742Z,2.69
2024-03-02T07:21:02.402Z,2.71
2024-03-02T07:22:07.844Z,2.76
2024-03-02T07:23:10.517Z,2.78
2024-03-02T07:24:14.742Z,2.79
2024-03-02T07:27:27.206Z,2.78
2024-03-02T07:28:29.574Z,2.71
2024-03-02T07:29:32.175Z,2.72
2024-03-02T07:30:34.980Z,2.72
2024-03-02T07:31:37.191Z,2.72
2024-03-02T07:32:39.524Z,2.76
2024-03-02T07:33:41.791Z,2.74
2024-03-02T07:34:43.908Z,2.74
2024-03-02T07:35:46.025Z,2.74
2024-03-02T07:36:48.162Z,2.73
2024-03-02T07:37:50.373Z,2.71
2024-03-02T07:38:52.555Z,2.70
2024-03-02T07:39:54.878Z,2.72
2024-03-02T07:40:57.432Z,2.72
2024-03-02T07:41:59.609Z,2.73
2024-03-02T07:43:01.918Z,2.74
2024-03-02T07:44:04.102Z,2.78
2024-03-02T07:45:06.935Z,2.81
2024-03-02T07:46:09.223Z,2.81
2024-03-02T07:47:11.219Z,2.82
2024-03-02T07:48:13.856Z,2.80
2024-03-02T07:49:16.077Z,2.76
2024-03-02T07:50:18.533Z,2.70
2024-03-02T07:51:20.536Z,2.65
2024-03-02T07:52:22.857Z,2.53
2024-03-02T07:53:24.998Z,2.45
2024-03-02T07:54:27.175Z,2.39
2024-03-02T07:55:29.260Z,2.33
2024-03-02T07:56:31.699Z,2.33
2024-03-02T07:57:33.851Z,2.31
2024-03-02T07:58:36.794Z,2.29
2024-03-02T07:59:38.912Z,2.27
2024-03-02T08:00:41.692Z,2.22
2024-03-02T08:01:44.028Z,2.18
2024-03-02T08:02:46.299Z,2.14
2024-03-02T08:03:52.303Z,2.14
2024-03-02T08:04:54.807Z,2.16
2024-03-02T08:05:56.957Z,2.15
2024-03-02T08:06:59.351Z,2.16
2024-03-02T08:08:01.584Z,2.15
2024-03-02T08:09:06.039Z,2.16
2024-03-02T08:10:08.836Z,2.17
2024-03-02T08:11:11.101Z,2.21
2024-03-02T08:12:13.115Z,2.25
2024-03-02T08:13:15.337Z,2.28
2024-03-02T08:14:17.583Z,2.30
2024-03-02T08:15:19.654Z,2.36
2024-03-02T08:16:23.498Z,2.41
2024-03-02T08:17:25.923Z,2.44
2024-03-02T08:18:28.047Z,2.48
2024-03-02T08:19:30.820Z,2.54
2024-03-02T08:20:32.924Z,2.62
2024-03-02T08:21:36.708Z,2.67
2024-03-02T08:22:39.227Z,2.70
2024-03-02T08:23:44.721Z,2.75
2024-03-02T08:24:47.298Z,2.79
2024-03-02T08:25:49.500Z,2.85
2024-03-02T08:26:51.585Z,2.89
2024-03-02T08:27:53.689Z,2.97
2024-03-02T08:28:55.833Z,3.01
2024-03-02T08:29:58.112Z,3.12
2024-03-02T08:31:00.448Z,3.21
2024-03-02T08:32:02.697Z,3.24
2024-03-02T08:33:05.174Z,3.30
2024-03-02T08:34:07.344Z,3.35
2024-03-02T08:35:09.635Z,3.41
2024-03-02T08:36:12.257Z,3.48
2024-03-02T08:37:14.529Z,3.51
2024-03-02T08:38:16.653Z,3.52
2024-03-02T08:39:20.921Z,3.64
2024-03-02T08:40:23.237Z,3.74
2024-03-02T08:41:25.435Z,3.75
2024-03-02T08:42:27.875Z,3.83
2024-03-02T08:43:29.894Z,3.86
2024-03-02T08:44:32.138Z,3.90
2024-03-02T08:45:36.269Z,3.89
2024-03-02T08:46:38.773Z,3.96
2024-03-02T08:47:40.966Z,3.97
2024-03-02T08:48:43.234Z,3.98
2024-03-02T08:49:45.265Z,3.99
2024-03-02T08:50:47.544Z,3.99
2024-03-02T08:51:56.285Z,3.97
2024-03-02T08:52:58.788Z,3.89
2024-03-02T08:54:01.032Z,3.78
2024-03-02T08:55:03.414Z,3.63
2024-03-02T08:56:06.700Z,3.55
2024-03-02T08:57:08.903Z,3.45
2024-03-02T08:58:11.038Z,3.36
2024-03-02T08:59:13.145Z,3.28
2024-03-02T09:00:15.489Z,3.20
2024-03-02T09:01:18.928Z,3.13
2024-03-02T09:02:21.051Z,3.08
2024-03-02T09:03:23.175Z,2.99
2024-03-02T09:04:27.110Z,2.96
2024-03-02T09:05:29.992Z,2.95
2024-03-02T09:06:32.130Z,2.91
2024-03-02T09:07:34.320Z,2.91
2024-03-02T09:08:37.633Z,2.89
2024-03-02T09:09:40.349Z,2.87
2024-03-02T09:10:42.596Z,2.86
2024-03-02T09:11:44.817Z,2.86
2024-03-02T09:12:46.823Z,2.86
2024-03-02T09:13:49.055Z,2.87
2024-03-02T09:14:51.066Z,2.81
2024-03-02T09:15:53.132Z,2.80
2024-03-02T09:16:55.421Z,2.76
2024-03-02T09:17:57.714Z,2.68
2024-03-02T09:18:59.849Z,2.63
2024-03-02T09:20:02.189Z,2.60
2024-03-02T09:21:04.424Z,2.56
2024-03-02T09:22:07.276Z,2.53
2024-03-02T09:23:09.897Z,2.53
2024-03-02T09:24:13.249Z,2.53
2024-03-02T09:25:17.511Z,2.56
2024-03-02T09:26:22.042Z,2.58
2024-03-02T09:27:24.091Z,2.63
2024-03-02T09:28:26.193Z,2.66
2024-03-02T09:29:28.364Z,2.65
2024-03-02T09:30:30.496Z,2.59
2024-03-02T09:31:32.439Z,2.67
2024-03-02T09:32:34.804Z,2.73
2024-03-02T09:33:36.914Z,2.75
2024-03-02T09:34:39.036Z,2.79
2024-03-02T09:35:41.182Z,2.79
2024-03-02T09:36:43.890Z,2.79
2024-03-02T09:37:45.967Z,2.82
2024-03-02T09:38:48.246Z,2.85
2024-03-02T09:39:50.251Z,2.85
2024-03-02T09:40:52.375Z,2.87
2024-03-02T09:41:55.066Z,2.88
2024-03-02T09:42:58.447Z,2.91
2024-03-02T09:44:01.134Z,2.93
2024-03-02T09:45:03.669Z,2.95
2024-03-02T09:46:06.288Z,2.93
2024-03-02T09:47:09.564Z,2.88
2024-03-02T09:48:11.819Z,2.86
2024-03-02T09:49:14.032Z,2.85
2024-03-02T09:50:16.237Z,2.82
2024-03-02T09:51:21.037Z,2.82
2024-03-02T09:52:24.694Z,2.79
2024-03-02T09:53:30.890Z,2.78
2024-03-02T09:54:33.081Z,2.76
2024-03-02T09:55:35.310Z,2.74
2024-03-02T09:56:37.417Z,2.72
2024-03-02T09:57:41.430Z,2.71
2024-03-02T09:58:45.343Z,2.69
2024-03-02T09:59:47.547Z,2.66
2024-03-02T10:00:50.831Z,2.67
2024-03-02T10:02:03.948Z,2.67
2024-03-02T10:03:06.708Z,2.65
2024-03-02T10:04:09.783Z,2.67
2024-03-02T10:05:13.317Z,2.68
2024-03-02T10:06:26.209Z,2.69
2024-03-02T10:07:28.652Z,2.66
2024-03-02T10:08:44.924Z,2.68
2024-03-02T10:09:47.817Z,2.69
2024-03-02T10:10:50.095Z,2.74
2024-03-02T10:11:52.210Z,2.72
2024-03-02T10:13:06.666Z,2.71
2024-03-02T10:14:09.745Z,2.68
2024-03-02T10:15:11.806Z,2.66
2024-03-02T10:16:14.142Z,2.63
2024-03-02T10:17:19.158Z,2.62
2024-03-02T10:18:30.610Z,2.59
2024-03-02T10:19:34.430Z,2.57
2024-03-02T10:20:37.680Z,2.57
2024-03-02T10:21:41.950Z,2.57
2024-03-02T10:22:44.052Z,2.55
2024-03-02T10:23:46.131Z,2.56
2024-03-02T10:24:50.301Z,2.53
2024-03-02T10:25:58.517Z,2.54
2024-03-02T10:27:01.048Z,2.57
2024-03-02T10:28:03.231Z,2.56
2024-03-02T10:29:05.377Z,2.58
2024-03-02T10:30:08.234Z,2.62
2024-03-02T10:31:11.156Z,2.65
2024-03-02T10:32:13.659Z,2.68
2024-03-02T10:33:15.967Z,2.70
2024-03-02T10:34:17.979Z,2.74
2024-03-02T10:35:21.665Z,2.79
2024-03-02T10:36:24.105Z,2.83
2024-03-02T10:37:26.223Z,2.84
2024-03-02T10:38:29.015Z,2.88
2024-03-02T10:39:32.797Z,2.92
2024-03-02T10:40:35.061Z,2.94
2024-03-02T10:41:38.849Z,2.96
2024-03-02T10:42:43.269Z,2.99
2024-03-02T10:43:46.257Z,3.01
2024-03-02T10:44:50.369Z,3.02
2024-03-02T10:45:54.181Z,3.01
2024-03-02T10:46:57.490Z,3.06
2024-03-02T10:48:02.043Z,3.05
2024-03-02T10:49:08.589Z,3.05
2024-03-02T10:50:11.880Z,3.05
2024-03-02T10:51:14.289Z,3.05
2024-03-02T10:52:16.434Z,3.09
2024-03-02T10:53:18.641Z,3.07
2024-03-02T10:54:27.124Z,3.09
2024-03-02T10:55:29.750Z,3.12
2024-03-02T10:56:40.440Z,3.16
2024-03-02T10:57:55.343Z,3.13
2024-03-02T10:59:18.697Z,3.17
2024-03-02T11:00:26.063Z,3.20
2024-03-02T11:01:30.625Z,3.21
2024-03-02T11:02:35.536Z,3.22
2024-03-02T11:03:40.500Z,3.26
2024-03-02T11:04:43.638Z,3.29
2024-03-02T11:05:47.245Z,3.31
2024-03-02T11:06:52.894Z,3.34
2024-03-02T11:08:04.229Z,3.36
2024-03-02T11:09:13.083Z,3.38
2024-03-02T11:10:16.198Z,3.39
2024-03-02T11:11:26.777Z,3.41
2024-03-02T11:12:33.188Z,3.41
2024-03-02T11:13:38.530Z,3.45
2024-03-02T11:14:47.541Z,3.52
2024-03-02T11:15:51.579Z,3.59
2024-03-02T11:16:55.379Z,3.68
2024-03-02T11:17:59.112Z,3.75
2024-03-02T11:19:01.777Z,3.83
2024-03-02T11:20:05.900Z,3.95
2024-03-02T11:21:08.686Z,4.03
2024-03-02T11:22:11.652Z,4.13
2024-03-02T11:23:13.680Z,4.23
2024-03-02T11:24:37.690Z,4.32
2024-03-02T11:25:41.114Z,4.36
2024-03-02T11:26:43.232Z,4.46
2024-03-02T11:27:49.316Z,4.51
2024-03-02T11:28:52.000Z,4.58
2024-03-02T11:29:54.005Z,4.66
2024-03-02T11:30:56.404Z,4.71
2024-03-02T11:32:00.753Z,4.77
2024-03-02T11:33:12.065Z,4.83
2024-03-02T11:34:35.519Z,4.89
2024-03-02T11:35:49.743Z,4.99
2024-03-02T11:36:52.578Z,5.06
2024-03-02T11:37:54.786Z,5.13
2024-03-02T11:38:57.548Z,5.16
2024-03-02T11:39:59.784Z,5.24
2024-03-02T11:41:10.261Z,5.29
2024-03-02T11:42:15.525Z,5.37
2024-03-02T11:43:17.928Z,5.47
2024-03-02T11:44:20.612Z,5.50
2024-03-02T11:45:29.179Z,5.57
2024-03-02T11:46:31.431Z,5.61
2024-03-02T11:47:36.656Z,5.56
2024-03-02T11:48:41.172Z,5.60
2024-03-02T11:49:47.057Z,5.61
2024-03-02T11:50:51.656Z,5.64
2024-03-02T11:52:03.101Z,5.61
2024-03-02T11:53:07.866Z,5.62
2024-03-02T11:54:11.092Z,5.60
2024-03-02T11:55:14.326Z,5.64
2024-03-02T11:56:18.357Z,5.66
2024-03-02T11:57:24.730Z,5.66
2024-03-02T11:58:28.949Z,5.67
2024-03-02T11:59:31.560Z,5.67
2024-03-02T12:00:33.693Z,5.68
2024-03-02T12:01:36.557Z,5.70
2024-03-02T12:02:40.138Z,5.73
2024-03-02T12:03:42.463Z,5.76
2024-03-02T12:04:44.885Z,5.78
2024-03-02T12:05:50.773Z,5.77
2024-03-02T12:07:03.614Z,5.78
2024-03-02T12:08:07.980Z,5.81
2024-03-02T12:09:13.508Z,5.79
2024-03-02T12:10:16.581Z,5.81
2024-03-02T12:11:18.740Z,5.82
2024-03-02T12:12:23.822Z,5.87
2024-03-02T12:13:26.060Z,5.88
2024-03-02T12:14:30.296Z,5.87
2024-03-02T12:15:34.923Z,5.88
2024-03-02T12:16:38.852Z,5.93
2024-03-02T12:17:41.179Z,5.92
2024-03-02T12:18:45.008Z,5.97
2024-03-02T12:19:47.429Z,5.96
2024-03-02T12:20:50.615Z,5.97
2024-03-02T12:21:53.332Z,5.98
2024-03-02T12:22:56.845Z,5.98
2024-03-02T12:23:59.184Z,5.97
2024-03-02T12:25:01.636Z,5.95
2024-03-02T12:26:04.013Z,5.92
2024-03-02T12:27:08.242Z,5.91
2024-03-02T12:28:10.495Z,5.85
2024-03-02T12:29:13.517Z,5.77
2024-03-02T12:30:15.725Z,5.64
2024-03-02T12:31:17.944Z,5.45
2024-03-02T12:32:20.038Z,5.31
2024-03-02T12:33:22.552Z,5.14
2024-03-02T12:34:25.182Z,5.02
2024-03-02T12:35:27.667Z,4.86
2024-03-02T12:36:29.672Z,4.73
2024-03-02T12:37:32.463Z,4.55
2024-03-02T12:38:34.446Z,4.46
2024-03-02T12:39:36.574Z,4.33
2024-03-02T12:40:38.795Z,4.20
2024-03-02T12:41:41.241Z,4.08
2024-03-02T12:42:43.422Z,3.96
2024-03-02T12:43:45.714Z,3.85
2024-03-02T12:44:47.720Z,3.75
2024-03-02T12:45:49.975Z,3.63
2024-03-02T12:46:54.934Z,3.51
2024-03-02T12:47:57.278Z,3.41
2024-03-02T12:49:00.612Z,3.30
2024-03-02T12:50:04.786Z,3.18
2024-03-02T12:51:06.998Z,3.06
2024-03-02T12:52:09.160Z,2.97
2024-03-02T12:53:16.920Z,2.88
2024-03-02T12:54:19.529Z,2.81
2024-03-02T12:55:26.279Z,2.73
2024-03-02T12:56:29.022Z,2.64
2024-03-02T12:57:35.536Z,2.57
2024-03-02T12:58:44.119Z,2.53
2024-03-02T12:59:49.507Z,2.47
2024-03-02T13:00:51.805Z,2.45
2024-03-02T13:01:55.081Z,2.41
2024-03-02T13:03:03.071Z,2.34
2024-03-02T13:04:05.443Z,2.31
2024-03-02T13:05:12.275Z,2.27
2024-03-02T13:06:14.488Z,2.21
2024-03-02T13:07:16.941Z,2.18
2024-03-02T13:08:19.037Z,2.12
2024-03-02T13:09:21.880Z,2.07
2024-03-02T13:10:24.005Z,2.02
2024-03-02T13:11:27.089Z,1.96
2024-03-02T13:12:29.477Z,1.92
2024-03-02T13:13:32.958Z,1.87
2024-03-02T13:14:36.389Z,1.85
2024-03-02T13:15:39.294Z,1.82
2024-03-02T13:16:47.380Z,1.77
2024-03-02T13:17:52.239Z,1.71
2024-03-02T13:18:54.409Z,1.69
2024-03-02T13:19:58.437Z,1.65
2024-03-02T13:21:00.812Z,1.62
2024-03-02T13:22:06.329Z,1.57
2024-03-02T13:23:08.563Z,1.55
2024-03-02T13:24:10.769Z,1.51
2024-03-02T13:25:13.346Z,1.47
2024-03-02T13:26:15.675Z,1.42
2024-03-02T13:27:20.793Z,1.39
2024-03-02T13:28:23.204Z,1.38
2024-03-02T13:29:25.759Z,1.36
2024-03-02T13:30:27.948Z,1.32
2024-03-02T13:31:30.227Z,1.29
2024-03-02T13:32:32.544Z,1.26
2024-03-02T13:33:34.776Z,1.25
2024-03-02T13:34:38.366Z,1.22
2024-03-02T13:35:40.355Z,1.20
2024-03-02T13:36:42.516Z,1.17
2024-03-02T13:37:44.624Z,1.14
2024-03-02T13:38:46.829Z,1.11
2024-03-02T13:39:48.954Z,1.07
2024-03-02T13:40:52.457Z,1.03
2024-03-02T13:41:58.846Z,1.01
2024-03-02T13:43:01.034Z,0.97
2024-03-02T13:44:03.315Z,0.94
2024-03-02T13:45:06.821Z,0.91
2024-03-02T13:46:08.885Z,0.88
2024-03-02T13:47:11.286Z,0.84
2024-03-02T13:48:13.366Z,0.83
2024-03-02T13:49:15.737Z,0.79
2024-03-02T13:50:17.864Z,0.73
2024-03-02T13:51:20.108Z,0.72
2024-03-02T13:52:22.098Z,0.68
2024-03-02T13:53:24.706Z,0.64
2024-03-02T13:54:28.039Z,0.61